createdAt,value
2018-05-04T00:01:03.195Z,1014.46
2018-05-04T00:02:02.926Z,1014.46
2018-05-04T00:03:56.025Z,1014.44
2018-05-04T00:04:55.803Z,1014.41
2018-05-04T00:06:49.383Z,1014.39
2018-05-04T00:07:49.736Z,1014.41
2018-05-04T00:09:42.275Z,1014.40
2018-05-04T00:10:42.020Z,1014.43
2018-05-04T00:12:35.073Z,1014.44
2018-05-04T00:13:34.875Z,1014.48
2018-05-04T00:15:28.262Z,1014.51
2018-05-04T00:16:28.215Z,1014.50
2018-05-04T00:18:21.617Z,1014.53
2018-05-04T00:19:21.578Z,1014.53
2018-05-04T00:21:14.705Z,1014.56
2018-05-04T00:22:14.450Z,1014.60
2018-05-04T00:24:07.566Z,1014.55
2018-05-04T00:25:07.291Z,1014.59
2018-05-04T00:27:00.923Z,1014.59
2018-05-04T00:28:00.668Z,1014.58
2018-05-04T00:29:54.224Z,1014.53
2018-05-04T00:30:54.589Z,1014.50
2018-05-04T00:32:47.057Z,1014.51
2018-05-04T00:33:46.973Z,1014.55
2018-05-04T00:35:39.880Z,1014.54
2018-05-04T00:36:39.873Z,1014.56
2018-05-04T00:38:32.984Z,1014.62
2018-05-04T00:39:32.690Z,1014.63
2018-05-04T00:41:27.395Z,1014.69
2018-05-04T00:42:26.034Z,1014.69
2018-05-04T00:44:19.160Z,1014.65
2018-05-04T00:45:19.498Z,1014.66
2018-05-04T00:47:12.558Z,1014.67
2018-05-04T00:48:12.250Z,1014.68
2018-05-04T00:50:05.720Z,1014.70
2018-05-04T00:51:05.109Z,1014.77
2018-05-04T00:52:58.163Z,1014.74
2018-05-04T00:53:57.966Z,1014.78
2018-05-04T00:55:50.972Z,1014.77
2018-05-04T00:56:50.846Z,1014.78
2018-05-04T00:58:43.899Z,1014.84
2018-05-04T00:59:43.688Z,1014.81
2018-05-04T01:01:37.143Z,1014.84
2018-05-04T01:02:37.034Z,1014.91
2018-05-04T01:04:29.944Z,1014.94
2018-05-04T01:05:29.919Z,1014.90
2018-05-04T01:07:23.095Z,1014.90
2018-05-04T01:08:22.765Z,1014.91
2018-05-04T01:10:15.718Z,1015.01
2018-05-04T01:11:15.611Z,1015.03
2018-05-04T01:13:09.200Z,1015.02
2018-05-04T01:14:09.547Z,1015.01
2018-05-04T01:16:02.346Z,1014.97
2018-05-04T01:17:02.909Z,1014.98
2018-05-04T01:18:55.901Z,1014.98
2018-05-04T01:19:55.702Z,1014.99
2018-05-04T01:21:48.836Z,1015.04
2018-05-04T01:22:48.562Z,1015.06
2018-05-04T01:24:41.445Z,1015.04
2018-05-04T01:25:41.425Z,1015.02
2018-05-04T01:27:34.965Z,1015.08
2018-05-04T01:28:34.772Z,1015.12
2018-05-04T01:30:28.353Z,1015.14
2018-05-04T01:31:28.108Z,1015.10
2018-05-04T01:33:21.252Z,1015.11
2018-05-04T01:34:20.979Z,1015.12
2018-05-04T01:36:14.513Z,1015.17
2018-05-04T01:37:14.326Z,1015.20
2018-05-04T01:39:07.439Z,1015.20
2018-05-04T01:40:07.163Z,1015.20
2018-05-04T01:42:00.239Z,1015.16
2018-05-04T01:43:00.070Z,1015.16
2018-05-04T01:44:53.211Z,1015.15
2018-05-04T01:45:52.981Z,1015.16
2018-05-04T01:47:46.056Z,1015.13
2018-05-04T01:48:45.870Z,1015.14
2018-05-04T01:50:38.846Z,1015.20
2018-05-04T01:51:38.946Z,1015.22
2018-05-04T01:53:31.642Z,1015.24
2018-05-04T01:54:31.707Z,1015.30
2018-05-04T01:56:25.304Z,1015.30
2018-05-04T01:57:24.439Z,1015.32
2018-05-04T01:59:17.497Z,1015.30
2018-05-04T02:00:17.283Z,1015.34
2018-05-04T02:02:10.369Z,1015.33
2018-05-04T02:03:10.408Z,1015.34
2018-05-04T02:05:03.189Z,1015.36
2018-05-04T02:06:03.015Z,1015.42
2018-05-04T02:07:56.418Z,1015.42
2018-05-04T02:08:56.351Z,1015.41
2018-05-04T02:10:49.428Z,1015.40
2018-05-04T02:11:49.211Z,1015.39
2018-05-04T02:13:42.757Z,1015.42
2018-05-04T02:14:42.574Z,1015.34
2018-05-04T02:16:35.603Z,1015.24
2018-05-04T02:17:35.453Z,1015.25
2018-05-04T02:19:28.997Z,1015.22
2018-05-04T02:20:28.777Z,1015.21
2018-05-04T02:22:21.908Z,1015.21
2018-05-04T02:23:22.214Z,1015.26
2018-05-04T02:25:15.018Z,1015.25
2018-05-04T02:26:14.983Z,1015.25
2018-05-04T02:28:07.991Z,1015.22
2018-05-04T02:29:07.850Z,1015.23
2018-05-04T02:31:00.829Z,1015.24
2018-05-04T02:32:00.706Z,1015.22
2018-05-04T02:33:53.601Z,1015.28
2018-05-04T02:34:53.558Z,1015.29
2018-05-04T02:36:47.088Z,1015.32
2018-05-04T02:37:46.917Z,1015.29
2018-05-04T02:39:39.919Z,1015.30
2018-05-04T02:40:39.779Z,1015.26
2018-05-04T02:42:32.889Z,1015.28
2018-05-04T02:43:32.655Z,1015.25
2018-05-04T02:45:25.708Z,1015.22
2018-05-04T02:46:25.482Z,1015.18
2018-05-04T02:48:18.896Z,1015.16
2018-05-04T02:49:18.832Z,1015.14
2018-05-04T02:51:12.349Z,1015.13
2018-05-04T02:52:12.186Z,1015.12
2018-05-04T02:54:05.610Z,1015.16
2018-05-04T02:55:05.533Z,1015.16
2018-05-04T02:56:58.428Z,1015.19
2018-05-04T02:57:58.408Z,1015.22
2018-05-04T02:59:51.285Z,1015.24
2018-05-04T03:00:51.267Z,1015.21
2018-05-04T03:02:44.801Z,1015.20
2018-05-04T03:03:44.626Z,1015.18
2018-05-04T03:05:38.596Z,1015.19
2018-05-04T03:06:37.956Z,1015.13
2018-05-04T03:08:32.475Z,1015.13
2018-05-04T03:09:32.316Z,1015.16
2018-05-04T03:11:25.295Z,1015.16
2018-05-04T03:12:25.167Z,1015.14
2018-05-04T03:14:18.185Z,1015.14
2018-05-04T03:15:18.022Z,1015.18
2018-05-04T03:17:10.989Z,1015.19
2018-05-04T03:18:10.878Z,1015.19
2018-05-04T03:20:04.258Z,1015.18
2018-05-04T03:21:04.233Z,1015.21
2018-05-04T03:22:57.208Z,1015.16
2018-05-04T03:23:57.078Z,1015.18
2018-05-04T03:25:50.044Z,1015.14
2018-05-04T03:26:49.935Z,1015.11
2018-05-04T03:28:42.899Z,1015.10
2018-05-04T03:29:43.380Z,1015.07
2018-05-04T03:31:36.363Z,1015.03
2018-05-04T03:32:36.724Z,1015.08
2018-05-04T03:34:29.527Z,1015.04
2018-05-04T03:35:29.508Z,1015.07
2018-05-04T03:37:23.020Z,1015.08
2018-05-04T03:38:22.892Z,1015.10
2018-05-04T03:40:15.734Z,1015.07
2018-05-04T03:41:15.709Z,1015.09
2018-05-04T03:43:09.330Z,1015.09
2018-05-04T03:44:09.161Z,1015.10
2018-05-04T03:46:01.437Z,1015.10
2018-05-04T03:47:01.429Z,1015.10
2018-05-04T03:48:55.914Z,1015.03
2018-05-04T03:49:55.964Z,1015.02
2018-05-04T03:51:49.200Z,1014.98
2018-05-04T03:52:49.149Z,1015.02
2018-05-04T03:54:42.449Z,1015.03
2018-05-04T03:55:42.247Z,1015.04
2018-05-04T03:57:35.433Z,1015.03
2018-05-04T03:58:35.374Z,1015.05
2018-05-04T04:00:33.342Z,1015.02
2018-05-04T04:01:28.910Z,1015.05
2018-05-04T04:03:22.325Z,1015.07
2018-05-04T04:04:22.074Z,1015.04
2018-05-04T04:06:15.835Z,1015.09
2018-05-04T04:07:15.426Z,1015.14
2018-05-04T04:09:09.395Z,1015.21
2018-05-04T04:10:08.792Z,1015.22
2018-05-04T04:12:06.556Z,1015.17
2018-05-04T04:13:03.145Z,1015.25
2018-05-04T04:14:56.572Z,1015.19
2018-05-04T04:15:56.493Z,1015.20
2018-05-04T04:17:49.898Z,1015.20
2018-05-04T04:18:49.840Z,1015.27
2018-05-04T04:20:42.744Z,1015.31
2018-05-04T04:21:43.286Z,1015.30
2018-05-04T04:23:36.084Z,1015.30
2018-05-04T04:24:36.053Z,1015.34
2018-05-04T04:26:29.020Z,1015.30
2018-05-04T04:27:28.908Z,1015.32
2018-05-04T04:29:21.865Z,1015.33
2018-05-04T04:30:21.778Z,1015.33
2018-05-04T04:32:14.848Z,1015.35
2018-05-04T04:33:14.644Z,1015.34
2018-05-04T04:35:09.005Z,1015.34
2018-05-04T04:36:09.010Z,1015.36
2018-05-04T04:38:02.686Z,1015.35
2018-05-04T04:39:02.356Z,1015.39
2018-05-04T04:40:57.786Z,1015.43
2018-05-04T04:41:55.686Z,1015.43
2018-05-04T04:43:51.878Z,1015.46
2018-05-04T04:44:51.624Z,1015.43
2018-05-04T04:46:45.349Z,1015.37
2018-05-04T04:47:44.960Z,1015.37
2018-05-04T04:49:38.760Z,1015.41
2018-05-04T04:50:38.935Z,1015.37
2018-05-04T04:52:32.064Z,1015.44
2018-05-04T04:53:31.660Z,1015.46
2018-05-04T04:55:24.622Z,1015.51
2018-05-04T04:56:24.924Z,1015.54
2018-05-04T04:58:17.601Z,1015.59
2018-05-04T04:59:17.534Z,1015.58
2018-05-04T05:01:10.528Z,1015.62
2018-05-04T05:02:10.502Z,1015.60
2018-05-04T05:04:08.715Z,1015.62
2018-05-04T05:05:08.438Z,1015.60
2018-05-04T05:07:01.712Z,1015.58
2018-05-04T05:08:01.672Z,1015.58
2018-05-04T05:09:59.125Z,1015.62
2018-05-04T05:10:58.115Z,1015.63
2018-05-04T05:12:52.007Z,1015.71
2018-05-04T05:13:50.960Z,1015.74
2018-05-04T05:15:44.431Z,1015.74
2018-05-04T05:16:44.335Z,1015.72
2018-05-04T05:18:37.982Z,1015.77
2018-05-04T05:19:37.681Z,1015.74
2018-05-04T05:21:31.101Z,1015.75
2018-05-04T05:22:31.623Z,1015.77
2018-05-04T05:24:24.247Z,1015.83
2018-05-04T05:25:24.202Z,1015.86
2018-05-04T05:27:17.650Z,1015.99
2018-05-04T05:28:17.596Z,1016.02
2018-05-04T05:30:10.847Z,1016.05
2018-05-04T05:31:10.652Z,1016.06
2018-05-04T05:33:03.785Z,1016.01
2018-05-04T05:34:03.524Z,1016.00
2018-05-04T05:35:56.571Z,1016.13
2018-05-04T05:36:56.994Z,1016.10
2018-05-04T05:38:50.051Z,1016.09
2018-05-04T05:39:49.738Z,1016.11
2018-05-04T05:41:42.994Z,1016.19
2018-05-04T05:42:42.802Z,1016.24
2018-05-04T05:44:36.077Z,1016.25
2018-05-04T05:45:35.489Z,1016.30
2018-05-04T05:47:28.743Z,1016.24
2018-05-04T05:48:28.368Z,1016.27
2018-05-04T05:50:21.762Z,1016.27
2018-05-04T05:51:21.972Z,1016.26
2018-05-04T05:53:14.730Z,1016.27
2018-05-04T05:54:14.601Z,1016.27
2018-05-04T05:56:08.144Z,1016.30
2018-05-04T05:57:08.527Z,1016.35
2018-05-04T05:59:01.523Z,1016.37
2018-05-04T06:00:01.351Z,1016.35
2018-05-04T06:01:54.768Z,1016.38
2018-05-04T06:02:54.737Z,1016.41
2018-05-04T06:04:48.397Z,1016.45
2018-05-04T06:05:48.090Z,1016.45
2018-05-04T06:07:42.285Z,1016.46
2018-05-04T06:08:41.487Z,1016.48
2018-05-04T06:10:34.652Z,1016.47
2018-05-04T06:11:34.597Z,1016.45
2018-05-04T06:13:28.991Z,1016.44
2018-05-04T06:14:28.724Z,1016.46
2018-05-04T06:16:21.929Z,1016.51
2018-05-04T06:17:21.893Z,1016.46
2018-05-04T06:19:15.288Z,1016.55
2018-05-04T06:20:15.351Z,1016.54
2018-05-04T06:22:08.682Z,1016.62
2018-05-04T06:23:08.247Z,1016.59
2018-05-04T06:25:01.652Z,1016.68
2018-05-04T06:26:01.516Z,1016.68
2018-05-04T06:27:54.236Z,1016.71
2018-05-04T06:28:54.446Z,1016.68
2018-05-04T06:30:47.897Z,1016.74
2018-05-04T06:31:47.516Z,1016.77
2018-05-04T06:33:41.252Z,1016.97
2018-05-04T06:34:41.237Z,1016.88
2018-05-04T06:36:34.272Z,1016.74
2018-05-04T06:37:34.159Z,1016.71
2018-05-04T06:39:27.511Z,1016.73
2018-05-04T06:40:27.473Z,1016.75
2018-05-04T06:42:20.881Z,1016.79
2018-05-04T06:43:20.572Z,1016.81
2018-05-04T06:45:14.261Z,1016.76
2018-05-04T06:46:14.248Z,1016.81
2018-05-04T06:48:07.188Z,1016.74
2018-05-04T06:49:06.863Z,1016.71
2018-05-04T06:51:00.571Z,1016.68
2018-05-04T06:52:00.591Z,1016.66
2018-05-04T06:53:53.975Z,1016.60
2018-05-04T06:54:53.954Z,1016.62
2018-05-04T06:56:46.942Z,1016.57
2018-05-04T06:57:46.806Z,1016.64
2018-05-04T06:59:40.245Z,1016.57
2018-05-04T07:00:40.224Z,1016.58
2018-05-04T07:02:34.183Z,1016.57
2018-05-04T07:03:33.251Z,1016.54
2018-05-04T07:05:26.239Z,1016.53
2018-05-04T07:06:27.115Z,1016.52
2018-05-04T07:08:19.878Z,1016.52
2018-05-04T07:09:19.871Z,1016.58
2018-05-04T07:11:12.743Z,1016.57
2018-05-04T07:12:12.406Z,1016.50
2018-05-04T07:14:06.117Z,1016.51
2018-05-04T07:15:06.102Z,1016.57
2018-05-04T07:16:59.512Z,1016.54
2018-05-04T07:17:59.482Z,1016.52
2018-05-04T07:19:52.221Z,1016.52
2018-05-04T07:20:52.405Z,1016.50
2018-05-04T07:22:45.299Z,1016.50
2018-05-04T07:23:45.286Z,1016.49
2018-05-04T07:25:38.958Z,1016.49
2018-05-04T07:26:38.662Z,1016.48
2018-05-04T07:28:31.236Z,1016.49
2018-05-04T07:29:31.242Z,1016.47
2018-05-04T07:31:25.044Z,1016.48
2018-05-04T07:32:24.905Z,1016.44
2018-05-04T07:34:18.286Z,1016.42
2018-05-04T07:35:18.252Z,1016.41
2018-05-04T07:37:11.716Z,1016.46
2018-05-04T07:38:12.134Z,1016.41
2018-05-04T07:40:04.594Z,1016.38
2018-05-04T07:41:04.592Z,1016.39
2018-05-04T07:42:58.000Z,1016.36
2018-05-04T07:43:58.028Z,1016.36
2018-05-04T07:45:51.359Z,1016.34
2018-05-04T07:46:51.321Z,1016.33
2018-05-04T07:48:44.271Z,1016.30
2018-05-04T07:49:44.272Z,1016.33
2018-05-04T07:51:37.707Z,1016.32
2018-05-04T07:52:37.592Z,1016.29
2018-05-04T07:54:31.006Z,1016.25
2018-05-04T07:55:30.978Z,1016.28
2018-05-04T07:57:23.977Z,1016.28
2018-05-04T07:58:23.897Z,1016.26
2018-05-04T08:00:16.730Z,1016.26
2018-05-04T08:01:16.460Z,1016.28
2018-05-04T08:03:09.660Z,1016.28
2018-05-04T08:04:09.640Z,1016.27
2018-05-04T08:06:02.285Z,1016.32
2018-05-04T08:07:03.183Z,1016.36
2018-05-04T08:08:56.560Z,1016.33
2018-05-04T08:09:56.522Z,1016.31
2018-05-04T08:11:49.895Z,1016.29
2018-05-04T08:12:49.588Z,1016.32
2018-05-04T08:14:44.262Z,1016.32
2018-05-04T08:15:44.231Z,1016.34
2018-05-04T08:17:37.360Z,1016.34
2018-05-04T08:18:37.699Z,1016.36
2018-05-04T08:20:30.508Z,1016.35
2018-05-04T08:21:30.514Z,1016.39
2018-05-04T08:23:24.185Z,1016.41
2018-05-04T08:24:24.452Z,1016.34
2018-05-04T08:26:17.985Z,1016.31
2018-05-04T08:27:17.428Z,1016.31
2018-05-04T08:29:10.254Z,1016.31
2018-05-04T08:30:10.290Z,1016.31
2018-05-04T08:32:03.609Z,1016.30
2018-05-04T08:33:03.573Z,1016.27
2018-05-04T08:34:57.080Z,1016.29
2018-05-04T08:35:56.929Z,1016.29
2018-05-04T08:37:49.873Z,1016.27
2018-05-04T08:38:49.528Z,1016.26
2018-05-04T08:40:43.245Z,1016.28
2018-05-04T08:41:43.227Z,1016.27
2018-05-04T08:43:36.605Z,1016.25
2018-05-04T08:44:36.590Z,1016.29
2018-05-04T08:46:30.028Z,1016.29
2018-05-04T08:47:29.964Z,1016.31
2018-05-04T08:49:23.322Z,1016.25
2018-05-04T08:50:23.030Z,1016.28
2018-05-04T08:52:16.776Z,1016.24
2018-05-04T08:53:16.697Z,1016.23
2018-05-04T08:55:10.089Z,1016.25
2018-05-04T08:56:10.013Z,1016.18
2018-05-04T08:58:03.591Z,1016.16
2018-05-04T08:59:03.161Z,1016.11
2018-05-04T09:00:56.329Z,1016.05
2018-05-04T09:01:56.339Z,1016.05
2018-05-04T09:03:49.712Z,1016.00
2018-05-04T09:04:49.415Z,1015.98
2018-05-04T09:06:43.673Z,1015.95
2018-05-04T09:07:43.143Z,1015.93
2018-05-04T09:09:35.980Z,1015.93
2018-05-04T09:10:35.886Z,1015.96
2018-05-04T09:12:29.354Z,1015.97
2018-05-04T09:13:29.318Z,1015.97
2018-05-04T09:15:22.721Z,1015.96
2018-05-04T09:16:23.268Z,1015.99
2018-05-04T09:18:15.623Z,1015.98
2018-05-04T09:19:15.593Z,1015.99
2018-05-04T09:21:08.955Z,1015.95
2018-05-04T09:22:08.905Z,1015.97
2018-05-04T09:24:01.813Z,1015.95
2018-05-04T09:25:01.850Z,1015.99
2018-05-04T09:26:56.307Z,1015.95
2018-05-04T09:27:55.170Z,1015.90
2018-05-04T09:29:48.077Z,1015.95
2018-05-04T09:30:48.166Z,1015.94
2018-05-04T09:32:41.578Z,1015.97
2018-05-04T09:33:40.975Z,1016.01
2018-05-04T09:35:34.378Z,1015.97
2018-05-04T09:36:34.380Z,1015.98
2018-05-04T09:38:27.799Z,1015.98
2018-05-04T09:39:27.468Z,1015.93
2018-05-04T09:41:20.753Z,1015.93
2018-05-04T09:42:20.367Z,1015.87
2018-05-04T09:44:13.724Z,1015.88
2018-05-04T09:45:14.027Z,1015.86
2018-05-04T09:47:07.319Z,1015.83
2018-05-04T09:48:07.351Z,1015.87
2018-05-04T09:50:00.780Z,1015.82
2018-05-04T09:51:00.742Z,1015.81
2018-05-04T09:52:54.706Z,1015.82
2018-05-04T09:53:54.105Z,1015.79
2018-05-04T09:55:47.028Z,1015.82
2018-05-04T09:56:46.658Z,1015.85
2018-05-04T09:58:39.591Z,1015.79
2018-05-04T09:59:39.864Z,1015.78
2018-05-04T10:01:33.012Z,1015.77
2018-05-04T10:02:32.751Z,1015.79
2018-05-04T10:04:26.149Z,1015.80
2018-05-04T10:05:26.084Z,1015.72
2018-05-04T10:07:19.515Z,1015.77
2018-05-04T10:08:19.466Z,1015.67
2018-05-04T10:10:12.855Z,1015.63
2018-05-04T10:11:12.772Z,1015.61
2018-05-04T10:13:05.812Z,1015.63
2018-05-04T10:14:05.995Z,1015.62
2018-05-04T10:15:58.767Z,1015.62
2018-05-04T10:16:58.666Z,1015.62
2018-05-04T10:18:52.013Z,1015.54
2018-05-04T10:19:51.776Z,1015.57
2018-05-04T10:21:44.689Z,1015.57
2018-05-04T10:22:44.620Z,1015.57
2018-05-04T10:24:38.396Z,1015.60
2018-05-04T10:25:38.266Z,1015.55
2018-05-04T10:27:32.291Z,1015.58
2018-05-04T10:28:31.627Z,1015.56
2018-05-04T10:30:25.163Z,1015.55
2018-05-04T10:31:25.151Z,1015.53
2018-05-04T10:33:18.467Z,1015.49
2018-05-04T10:34:18.115Z,1015.48
2018-05-04T10:36:11.343Z,1015.41
2018-05-04T10:37:11.224Z,1015.47
2018-05-04T10:39:04.254Z,1015.46
2018-05-04T10:40:04.184Z,1015.47
2018-05-04T10:41:57.095Z,1015.43
2018-05-04T10:42:56.777Z,1015.43
2018-05-04T10:44:51.476Z,1015.37
2018-05-04T10:45:51.396Z,1015.35
2018-05-04T10:47:44.350Z,1015.34
2018-05-04T10:48:44.296Z,1015.36
2018-05-04T10:50:37.347Z,1015.34
2018-05-04T10:51:37.309Z,1015.35
2018-05-04T10:53:30.752Z,1015.28
2018-05-04T10:54:30.640Z,1015.28
2018-05-04T10:56:23.574Z,1015.31
2018-05-04T10:57:23.534Z,1015.32
2018-05-04T10:59:16.638Z,1015.30
2018-05-04T11:00:16.953Z,1015.30
2018-05-04T11:02:10.308Z,1015.32
2018-05-04T11:03:10.200Z,1015.23
2018-05-04T11:05:03.206Z,1015.29
2018-05-04T11:06:03.153Z,1015.24
2018-05-04T11:07:56.519Z,1015.27
2018-05-04T11:08:56.195Z,1015.25
2018-05-04T11:10:49.907Z,1015.20
2018-05-04T11:11:49.983Z,1015.19
2018-05-04T11:13:42.812Z,1015.15
2018-05-04T11:14:42.449Z,1015.17
2018-05-04T11:16:36.284Z,1015.15
2018-05-04T11:17:35.829Z,1015.23
2018-05-04T11:19:28.796Z,1015.17
2018-05-04T11:20:29.265Z,1015.15
2018-05-04T11:22:21.941Z,1015.14
2018-05-04T11:23:21.648Z,1015.10
2018-05-04T11:25:14.792Z,1015.16
2018-05-04T11:26:14.465Z,1015.16
2018-05-04T11:28:07.919Z,1015.12
2018-05-04T11:29:07.615Z,1015.17
2018-05-04T11:31:00.803Z,1015.16
2018-05-04T11:32:00.524Z,1015.11
2018-05-04T11:33:54.139Z,1015.10
2018-05-04T11:34:54.158Z,1015.06
2018-05-04T11:36:47.558Z,1015.08
2018-05-04T11:37:47.260Z,1015.09
2018-05-04T11:39:40.987Z,1015.06
2018-05-04T11:40:40.953Z,1015.04
2018-05-04T11:42:34.038Z,1015.01
2018-05-04T11:43:34.275Z,1014.97
2018-05-04T11:45:27.694Z,1014.95
2018-05-04T11:46:27.739Z,1014.92
2018-05-04T11:48:21.105Z,1014.96
2018-05-04T11:49:20.738Z,1014.92
2018-05-04T11:51:13.674Z,1014.97
2018-05-04T11:52:15.474Z,1015.00
2018-05-04T11:54:07.328Z,1015.00
2018-05-04T11:55:07.048Z,1015.05
2018-05-04T11:57:00.673Z,1015.01
2018-05-04T11:58:00.369Z,1014.95
2018-05-04T11:59:54.058Z,1015.02
2018-05-04T12:00:54.132Z,1015.04
2018-05-04T12:02:47.505Z,1015.05
2018-05-04T12:03:47.458Z,1015.03
2018-05-04T12:05:40.627Z,1015.04
2018-05-04T12:06:40.350Z,1015.06
2018-05-04T12:08:34.296Z,1015.03
2018-05-04T12:09:33.212Z,1015.01
2018-05-04T12:11:26.149Z,1014.99
2018-05-04T12:12:26.089Z,1015.03
2018-05-04T12:14:19.455Z,1015.00
2018-05-04T12:15:19.439Z,1014.95
2018-05-04T12:17:12.906Z,1015.00
2018-05-04T12:18:12.807Z,1014.93
2018-05-04T12:20:06.661Z,1015.01
2018-05-04T12:21:06.168Z,1015.00
2018-05-04T12:22:59.315Z,1015.04
2018-05-04T12:23:59.557Z,1015.00
2018-05-04T12:25:52.436Z,1015.06
2018-05-04T12:26:52.393Z,1015.07
2018-05-04T12:28:45.367Z,1015.04
2018-05-04T12:29:45.267Z,1015.09
2018-05-04T12:31:38.996Z,1015.10
2018-05-04T12:32:38.204Z,1015.10
2018-05-04T12:34:31.295Z,1015.13
2018-05-04T12:35:31.521Z,1015.11
2018-05-04T12:37:25.016Z,1015.07
2018-05-04T12:38:24.653Z,1015.07
2018-05-04T12:40:18.050Z,1015.04
2018-05-04T12:41:18.313Z,1014.99
2018-05-04T12:43:11.181Z,1015.05
2018-05-04T12:44:11.195Z,1015.01
2018-05-04T12:46:04.715Z,1014.96
2018-05-04T12:47:04.710Z,1014.96
2018-05-04T12:48:57.995Z,1014.98
2018-05-04T12:49:57.974Z,1015.00
2018-05-04T12:51:50.974Z,1014.96
2018-05-04T12:52:50.946Z,1015.00
2018-05-04T12:54:43.942Z,1014.98
2018-05-04T12:55:43.536Z,1015.02
2018-05-04T12:57:36.722Z,1014.95
2018-05-04T12:58:36.730Z,1014.95
2018-05-04T13:00:30.051Z,1014.87
2018-05-04T13:01:30.133Z,1014.93
2018-05-04T13:03:23.472Z,1014.90
2018-05-04T13:04:23.231Z,1014.88
2018-05-04T13:06:16.868Z,1014.93
2018-05-04T13:07:16.528Z,1014.90
2018-05-04T13:09:09.758Z,1014.88
2018-05-04T13:10:09.400Z,1014.95
2018-05-04T13:12:02.639Z,1014.86
2018-05-04T13:13:02.291Z,1014.86
2018-05-04T13:14:56.017Z,1014.84
2018-05-04T13:15:55.953Z,1014.85
2018-05-04T13:17:48.588Z,1014.81
2018-05-04T13:18:49.081Z,1014.77
2018-05-04T13:20:42.202Z,1014.88
2018-05-04T13:21:41.918Z,1014.87
2018-05-04T13:23:34.858Z,1014.88
2018-05-04T13:24:35.152Z,1014.91
2018-05-04T13:26:28.512Z,1014.85
2018-05-04T13:27:28.788Z,1014.80
2018-05-04T13:29:21.416Z,1014.79
2018-05-04T13:30:21.040Z,1014.78
2018-05-04T13:32:14.685Z,1014.74
2018-05-04T13:33:14.714Z,1014.71
2018-05-04T13:35:08.165Z,1014.68
2018-05-04T13:36:07.794Z,1014.74
2018-05-04T13:38:01.047Z,1014.66
2018-05-04T13:39:00.742Z,1014.78
2018-05-04T13:40:54.494Z,1014.72
2018-05-04T13:41:54.436Z,1014.70
2018-05-04T13:43:47.774Z,1014.70
2018-05-04T13:44:47.476Z,1014.64
2018-05-04T13:46:40.846Z,1014.73
2018-05-04T13:47:40.797Z,1014.71
2018-05-04T13:49:34.559Z,1014.76
2018-05-04T13:50:34.453Z,1014.74
2018-05-04T13:52:27.394Z,1014.76
2018-05-04T13:53:27.052Z,1014.71
2018-05-04T13:55:20.850Z,1014.70
2018-05-04T13:56:19.987Z,1014.68
2018-05-04T13:58:13.123Z,1014.64
2018-05-04T13:59:12.881Z,1014.61
2018-05-04T14:01:06.523Z,1014.58
2018-05-04T14:02:07.038Z,1014.64
2018-05-04T14:03:59.936Z,1014.59
2018-05-04T14:04:59.849Z,1014.55
2018-05-04T14:06:53.312Z,1014.59
2018-05-04T14:07:53.203Z,1014.59
2018-05-04T14:09:46.233Z,1014.55
2018-05-04T14:10:46.308Z,1014.52
2018-05-04T14:12:40.342Z,1014.55
2018-05-04T14:13:39.368Z,1014.49
2018-05-04T14:15:32.974Z,1014.48
2018-05-04T14:16:32.667Z,1014.48
2018-05-04T14:18:27.378Z,1014.48
2018-05-04T14:19:26.743Z,1014.46
2018-05-04T14:21:19.663Z,1014.50
2018-05-04T14:22:19.639Z,1014.47
2018-05-04T14:24:12.510Z,1014.44
2018-05-04T14:25:12.243Z,1014.41
2018-05-04T14:27:05.432Z,1014.41
2018-05-04T14:28:05.366Z,1014.40
2018-05-04T14:29:58.301Z,1014.37
2018-05-04T14:30:58.223Z,1014.39
2018-05-04T14:32:51.131Z,1014.38
2018-05-04T14:33:51.137Z,1014.39
2018-05-04T14:35:44.546Z,1014.36
2018-05-04T14:36:44.189Z,1014.39
2018-05-04T14:38:37.909Z,1014.35
2018-05-04T14:39:37.863Z,1014.37
2018-05-04T14:41:30.595Z,1014.32
2018-05-04T14:42:30.774Z,1014.37
2018-05-04T14:44:24.186Z,1014.38
2018-05-04T14:45:23.812Z,1014.39
2018-05-04T14:47:17.561Z,1014.39
2018-05-04T14:48:17.208Z,1014.36
2018-05-04T14:50:10.896Z,1014.38
2018-05-04T14:51:10.840Z,1014.39
2018-05-04T14:53:03.980Z,1014.42
2018-05-04T14:54:03.938Z,1014.37
2018-05-04T14:55:57.672Z,1014.37
2018-05-04T14:56:57.345Z,1014.36
2018-05-04T14:58:51.042Z,1014.36
2018-05-04T14:59:51.049Z,1014.33
2018-05-04T15:01:43.892Z,1014.29
2018-05-04T15:02:43.565Z,1014.33
2018-05-04T15:04:37.262Z,1014.29
2018-05-04T15:05:37.234Z,1014.30
2018-05-04T15:07:30.622Z,1014.31
2018-05-04T15:08:30.303Z,1014.28
2018-05-04T15:10:24.104Z,1014.32
2018-05-04T15:11:24.022Z,1014.27
2018-05-04T15:13:16.918Z,1014.29
2018-05-04T15:14:16.874Z,1014.29
2018-05-04T15:16:10.372Z,1014.31
2018-05-04T15:17:10.283Z,1014.27
2018-05-04T15:19:03.035Z,1014.25
2018-05-04T15:20:03.166Z,1014.30
2018-05-04T15:21:56.532Z,1014.24
2018-05-04T15:24:15.005Z,1014.17
2018-05-04T15:25:12.513Z,1014.22
2018-05-04T15:27:05.710Z,1014.23
2018-05-04T15:28:05.496Z,1014.20
2018-05-04T15:29:58.708Z,1014.18
2018-05-04T15:30:58.966Z,1014.27
2018-05-04T15:32:51.574Z,1014.28
2018-05-04T15:33:51.531Z,1014.22
2018-05-04T15:35:44.979Z,1014.21
2018-05-04T15:36:44.672Z,1014.23
2018-05-04T15:38:38.457Z,1014.20
2018-05-04T15:39:38.103Z,1014.26
2018-05-04T15:41:31.285Z,1014.21
2018-05-04T15:42:31.002Z,1014.26
2018-05-04T15:44:27.176Z,1014.29
2018-05-04T15:45:27.130Z,1014.21
2018-05-04T15:47:20.504Z,1014.27
2018-05-04T15:48:20.758Z,1014.30
2018-05-04T15:50:13.886Z,1014.40
2018-05-04T15:51:13.842Z,1014.37
2018-05-04T15:53:07.388Z,1014.36
2018-05-04T15:54:07.316Z,1014.37
2018-05-04T15:55:59.628Z,1014.43
2018-05-04T15:57:00.683Z,1014.40
2018-05-04T15:58:53.077Z,1014.43
2018-05-04T15:59:53.054Z,1014.41
2018-05-04T16:01:47.808Z,1014.45
2018-05-04T16:02:47.588Z,1014.37
2018-05-04T16:04:40.592Z,1014.39
2018-05-04T16:05:41.345Z,1014.38
2018-05-04T16:07:35.603Z,1014.42
2018-05-04T16:08:34.653Z,1014.38
2018-05-04T16:10:27.646Z,1014.42
2018-05-04T16:11:28.273Z,1014.42
2018-05-04T16:13:23.549Z,1014.44
2018-05-04T16:14:20.868Z,1014.38
2018-05-04T16:16:14.451Z,1014.36
2018-05-04T16:17:14.014Z,1014.34
2018-05-04T16:19:07.769Z,1014.38
2018-05-04T16:20:07.372Z,1014.37
2018-05-04T16:22:01.164Z,1014.40
2018-05-04T16:23:00.956Z,1014.39
2018-05-04T16:24:55.290Z,1014.37
2018-05-04T16:25:54.180Z,1014.32
2018-05-04T16:27:50.629Z,1014.39
2018-05-04T16:28:51.437Z,1014.39
2018-05-04T16:30:46.274Z,1014.38
2018-05-04T16:31:46.884Z,1014.34
2018-05-04T16:33:43.015Z,1014.40
2018-05-04T16:34:42.093Z,1014.35
2018-05-04T16:36:35.589Z,1014.38
2018-05-04T16:37:36.671Z,1014.35
2018-05-04T16:39:28.558Z,1014.36
2018-05-04T16:40:28.865Z,1014.34
2018-05-04T16:42:22.577Z,1014.36
2018-05-04T16:43:22.471Z,1014.40
2018-05-04T16:46:06.347Z,1014.37
2018-05-04T16:47:06.404Z,1014.35
2018-05-04T16:49:01.046Z,1014.36
2018-05-04T16:50:00.701Z,1014.39
2018-05-04T16:51:54.230Z,1014.41
2018-05-04T16:52:53.972Z,1014.44
2018-05-04T16:54:46.777Z,1014.43
2018-05-04T16:55:46.206Z,1014.42
2018-05-04T16:57:39.475Z,1014.36
2018-05-04T16:58:39.395Z,1014.48
2018-05-04T17:00:32.810Z,1014.41
2018-05-04T17:01:33.082Z,1014.46
2018-05-04T17:03:26.206Z,1014.47
2018-05-04T17:04:25.860Z,1014.46
2018-05-04T17:06:19.564Z,1014.49
2018-05-04T17:07:19.552Z,1014.52
2018-05-04T17:09:12.462Z,1014.53
2018-05-04T17:10:12.429Z,1014.53
2018-05-04T17:12:06.074Z,1014.59
2018-05-04T17:13:07.457Z,1014.58
2018-05-04T17:14:59.410Z,1014.59
2018-05-04T17:15:59.226Z,1014.58
2018-05-04T17:17:52.636Z,1014.60
2018-05-04T17:18:52.221Z,1014.60
2018-05-04T17:20:45.121Z,1014.65
2018-05-04T17:21:45.109Z,1014.64
2018-05-04T17:23:39.075Z,1014.65
2018-05-04T17:24:38.770Z,1014.62
2018-05-04T17:26:32.892Z,1014.65
2018-05-04T17:27:32.758Z,1014.65
2018-05-04T17:29:26.249Z,1014.70